JST715 YMML-YSCB
Flight info
| Callsign | JST715 |
|---|---|
| Flight time | 0h 46m |
| Altitude | 33000 |
| Route | DOSEL2/34 DOSEL Y59 ARRAN J42 CB |
| Aircraft | A321/M-SDE3FGHIRWY/LB1 |
Departure
| Time | 2026-04-30 08:49 |
|---|---|
| Airport | Melbourne Airport (YMML) |
Arrival
| Time | 2026-04-30 09:35 |
|---|---|
| Airport | Canberra Airport (YSCB) |
| Time | Latitude | Longitude | Altitude | Speed | Heading |
|---|---|---|---|---|---|
| 2026-04-30 08:37 | -37.67133 | 144.84586 | 388 ft | 0 kts | 352° |
| 2026-04-30 08:40 | -37.67143 | 144.84587 | 388 ft | 3 kts | 349° |
| 2026-04-30 08:41 | -37.67166 | 144.84594 | 387 ft | 3 kts | 339° |
| 2026-04-30 08:41 | -37.67187 | 144.84607 | 387 ft | 3 kts | 318° |
| 2026-04-30 08:41 | -37.67199 | 144.84628 | 387 ft | 3 kts | 269° |
| 2026-04-30 08:41 | -37.67199 | 144.84634 | 387 ft | 0 kts | 262° |
| 2026-04-30 08:44 | -37.67200 | 144.84619 | 387 ft | 3 kts | 262° |
| 2026-04-30 08:44 | -37.67205 | 144.84572 | 386 ft | 7 kts | 262° |
| 2026-04-30 08:44 | -37.67210 | 144.84495 | 385 ft | 10 kts | 276° |
| 2026-04-30 08:45 | -37.67201 | 144.84393 | 384 ft | 13 kts | 266° |
| 2026-04-30 08:45 | -37.67245 | 144.84289 | 381 ft | 16 kts | 200° |
| 2026-04-30 08:45 | -37.67359 | 144.84302 | 379 ft | 12 kts | 167° |
| 2026-04-30 08:45 | -37.67429 | 144.84316 | 377 ft | 9 kts | 171° |
| 2026-04-30 08:46 | -37.67502 | 144.84324 | 375 ft | 12 kts | 172° |
| 2026-04-30 08:46 | -37.67596 | 144.84343 | 373 ft | 15 kts | 171° |
| 2026-04-30 08:46 | -37.67711 | 144.84364 | 372 ft | 18 kts | 172° |
| 2026-04-30 08:46 | -37.67814 | 144.84339 | 363 ft | 17 kts | 214° |
| 2026-04-30 08:47 | -37.67855 | 144.84261 | 363 ft | 10 kts | 257° |
| 2026-04-30 08:47 | -37.67866 | 144.84179 | 359 ft | 9 kts | 260° |
| 2026-04-30 08:47 | -37.67871 | 144.84135 | 365 ft | 0 kts | 261° |
| 2026-04-30 08:48 | -37.67875 | 144.84104 | 362 ft | 12 kts | 261° |
| 2026-04-30 08:48 | -37.67837 | 144.83966 | 361 ft | 26 kts | 335° |
| 2026-04-30 08:49 | -37.67491 | 144.83895 | 369 ft | 86 kts | 352° |
| 2026-04-30 08:49 | -37.66997 | 144.83805 | 387 ft | 130 kts | 352° |
| 2026-04-30 08:49 | -37.65994 | 144.83611 | 821 ft | 146 kts | 353° |
| 2026-04-30 08:49 | -37.64993 | 144.83448 | 1581 ft | 145 kts | 354° |
| 2026-04-30 08:50 | -37.63992 | 144.83265 | 2298 ft | 150 kts | 352° |
| 2026-04-30 08:50 | -37.62878 | 144.83046 | 2760 ft | 173 kts | 352° |
| 2026-04-30 08:50 | -37.61165 | 144.82707 | 3332 ft | 204 kts | 351° |
| 2026-04-30 08:50 | -37.60179 | 144.82514 | 3609 ft | 220 kts | 352° |
| 2026-04-30 08:51 | -37.58573 | 144.82647 | 4240 ft | 245 kts | 17° |
| 2026-04-30 08:51 | -37.56993 | 144.83542 | 5123 ft | 252 kts | 22° |
| 2026-04-30 08:51 | -37.55402 | 144.84512 | 5950 ft | 258 kts | 22° |
| 2026-04-30 08:51 | -37.53774 | 144.85510 | 6761 ft | 262 kts | 22° |
| 2026-04-30 08:52 | -37.52120 | 144.86521 | 7573 ft | 266 kts | 21° |
| 2026-04-30 08:52 | -37.50443 | 144.87544 | 8381 ft | 270 kts | 22° |
| 2026-04-30 08:52 | -37.48738 | 144.88582 | 9180 ft | 274 kts | 21° |
| 2026-04-30 08:52 | -37.47009 | 144.89630 | 10003 ft | 278 kts | 21° |
| 2026-04-30 08:53 | -37.45236 | 144.90755 | 10469 ft | 297 kts | 27° |
| 2026-04-30 08:53 | -37.43507 | 144.92381 | 10730 ft | 324 kts | 40° |
| 2026-04-30 08:53 | -37.42012 | 144.94582 | 11285 ft | 337 kts | 51° |
| 2026-04-30 08:53 | -37.40676 | 144.96984 | 11983 ft | 342 kts | 51° |
| 2026-04-30 08:54 | -37.39297 | 144.99437 | 12732 ft | 345 kts | 51° |
| 2026-04-30 08:54 | -37.37898 | 145.01907 | 13464 ft | 349 kts | 51° |
| 2026-04-30 08:54 | -37.36482 | 145.04402 | 14186 ft | 353 kts | 51° |
| 2026-04-30 08:54 | -37.35052 | 145.06918 | 14834 ft | 356 kts | 51° |
| 2026-04-30 08:55 | -37.33609 | 145.09464 | 15501 ft | 359 kts | 51° |
| 2026-04-30 08:55 | -37.32155 | 145.12033 | 16178 ft | 362 kts | 51° |
| 2026-04-30 08:55 | -37.30691 | 145.14624 | 16860 ft | 365 kts | 51° |
| 2026-04-30 08:55 | -37.29211 | 145.17232 | 17542 ft | 368 kts | 50° |
| 2026-04-30 08:56 | -37.27713 | 145.19861 | 18212 ft | 372 kts | 50° |
| 2026-04-30 08:56 | -37.26203 | 145.22513 | 18831 ft | 375 kts | 50° |
| 2026-04-30 08:56 | -37.24680 | 145.25191 | 19389 ft | 379 kts | 50° |
| 2026-04-30 08:56 | -37.23141 | 145.27894 | 19921 ft | 383 kts | 50° |
| 2026-04-30 08:57 | -37.21585 | 145.30625 | 20473 ft | 387 kts | 50° |
| 2026-04-30 08:57 | -37.20014 | 145.33384 | 21020 ft | 390 kts | 50° |
| 2026-04-30 08:57 | -37.18426 | 145.36168 | 21566 ft | 394 kts | 50° |
| 2026-04-30 08:57 | -37.16820 | 145.38978 | 22112 ft | 398 kts | 50° |
| 2026-04-30 08:58 | -37.15200 | 145.41816 | 22655 ft | 402 kts | 50° |
| 2026-04-30 08:58 | -37.13562 | 145.44679 | 23178 ft | 406 kts | 50° |
| 2026-04-30 08:58 | -37.11908 | 145.47562 | 23704 ft | 410 kts | 50° |
| 2026-04-30 08:58 | -37.10233 | 145.50477 | 24157 ft | 414 kts | 50° |
| 2026-04-30 08:59 | -37.08546 | 145.53414 | 24596 ft | 417 kts | 50° |
| 2026-04-30 08:59 | -37.06845 | 145.56373 | 25017 ft | 420 kts | 50° |
| 2026-04-30 08:59 | -37.05132 | 145.59350 | 25449 ft | 423 kts | 50° |
| 2026-04-30 08:59 | -37.03409 | 145.62344 | 25874 ft | 425 kts | 50° |
| 2026-04-30 09:00 | -37.01675 | 145.65349 | 26298 ft | 427 kts | 50° |
| 2026-04-30 09:00 | -36.99931 | 145.68374 | 26737 ft | 429 kts | 50° |
| 2026-04-30 09:00 | -36.98179 | 145.71410 | 27152 ft | 431 kts | 50° |
| 2026-04-30 09:00 | -36.96418 | 145.74461 | 27576 ft | 434 kts | 50° |
| 2026-04-30 09:01 | -36.94649 | 145.77523 | 27986 ft | 436 kts | 50° |
| 2026-04-30 09:01 | -36.92870 | 145.80596 | 28378 ft | 438 kts | 50° |
| 2026-04-30 09:01 | -36.91073 | 145.83697 | 28767 ft | 441 kts | 50° |
| 2026-04-30 09:01 | -36.89269 | 145.86801 | 29157 ft | 443 kts | 50° |
| 2026-04-30 09:02 | -36.85648 | 145.93022 | 29921 ft | 448 kts | 50° |
| 2026-04-30 09:02 | -36.83812 | 145.96179 | 30286 ft | 451 kts | 50° |
| 2026-04-30 09:02 | -36.81965 | 145.99356 | 30608 ft | 453 kts | 50° |
| 2026-04-30 09:03 | -36.80112 | 146.02543 | 30918 ft | 455 kts | 50° |
| 2026-04-30 09:03 | -36.78244 | 146.05746 | 31232 ft | 457 kts | 50° |
| 2026-04-30 09:03 | -36.76370 | 146.08956 | 31557 ft | 458 kts | 50° |
| 2026-04-30 09:03 | -36.74491 | 146.12170 | 31886 ft | 460 kts | 50° |
| 2026-04-30 09:04 | -36.72599 | 146.15406 | 32225 ft | 461 kts | 50° |
| 2026-04-30 09:04 | -36.70716 | 146.18626 | 32686 ft | 460 kts | 50° |
| 2026-04-30 09:04 | -36.68834 | 146.21839 | 33140 ft | 458 kts | 50° |
| 2026-04-30 09:04 | -36.66952 | 146.25046 | 33324 ft | 458 kts | 50° |
| 2026-04-30 09:05 | -36.65098 | 146.28211 | 33360 ft | 444 kts | 50° |
| 2026-04-30 09:05 | -36.63303 | 146.31281 | 33367 ft | 436 kts | 50° |
| 2026-04-30 09:05 | -36.59733 | 146.37357 | 33367 ft | 434 kts | 50° |
| 2026-04-30 09:06 | -36.56151 | 146.43410 | 33361 ft | 434 kts | 50° |
| 2026-04-30 09:06 | -36.52573 | 146.49455 | 33360 ft | 434 kts | 50° |
| 2026-04-30 09:07 | -36.48992 | 146.55502 | 33359 ft | 434 kts | 50° |
| 2026-04-30 09:07 | -36.45411 | 146.61543 | 33358 ft | 434 kts | 50° |
| 2026-04-30 09:08 | -36.41827 | 146.67579 | 33372 ft | 434 kts | 50° |
| 2026-04-30 09:08 | -36.38242 | 146.73621 | 33378 ft | 435 kts | 50° |
| 2026-04-30 09:09 | -36.34654 | 146.79642 | 33374 ft | 434 kts | 50° |
| 2026-04-30 09:09 | -36.31054 | 146.85667 | 33370 ft | 434 kts | 50° |
| 2026-04-30 09:10 | -36.27460 | 146.91683 | 33372 ft | 434 kts | 50° |
| 2026-04-30 09:10 | -36.23860 | 146.97695 | 33377 ft | 435 kts | 50° |
| 2026-04-30 09:11 | -36.20250 | 147.03706 | 33378 ft | 435 kts | 50° |
| 2026-04-30 09:11 | -36.16639 | 147.09706 | 33387 ft | 434 kts | 50° |
| 2026-04-30 09:12 | -36.13032 | 147.15694 | 33385 ft | 434 kts | 51° |
| 2026-04-30 09:12 | -36.09448 | 147.21637 | 33398 ft | 433 kts | 51° |
| 2026-04-30 09:13 | -36.05846 | 147.27604 | 33400 ft | 433 kts | 51° |
| 2026-04-30 09:13 | -36.04044 | 147.30579 | 33298 ft | 432 kts | 50° |
| 2026-04-30 09:13 | -36.02239 | 147.33559 | 32991 ft | 425 kts | 50° |
| 2026-04-30 09:14 | -36.00477 | 147.36475 | 32514 ft | 422 kts | 50° |
| 2026-04-30 09:14 | -35.98726 | 147.39366 | 32042 ft | 419 kts | 50° |
| 2026-04-30 09:14 | -35.96983 | 147.42234 | 31577 ft | 416 kts | 50° |
| 2026-04-30 09:14 | -35.95250 | 147.45080 | 31117 ft | 413 kts | 50° |
| 2026-04-30 09:15 | -35.93513 | 147.47928 | 30660 ft | 423 kts | 50° |
| 2026-04-30 09:15 | -35.91714 | 147.50869 | 30152 ft | 447 kts | 50° |
| 2026-04-30 09:15 | -35.89794 | 147.54006 | 29649 ft | 467 kts | 50° |
| 2026-04-30 09:15 | -35.87827 | 147.57231 | 29144 ft | 472 kts | 51° |
| 2026-04-30 09:16 | -35.85868 | 147.60477 | 28654 ft | 472 kts | 53° |
| 2026-04-30 09:16 | -35.84289 | 147.64006 | 28157 ft | 473 kts | 65° |
| 2026-04-30 09:16 | -35.83368 | 147.67890 | 27681 ft | 473 kts | 78° |
| 2026-04-30 09:16 | -35.82939 | 147.71904 | 27202 ft | 471 kts | 81° |
| 2026-04-30 09:17 | -35.82540 | 147.75905 | 26728 ft | 468 kts | 81° |
| 2026-04-30 09:17 | -35.82143 | 147.79871 | 26242 ft | 464 kts | 81° |
| 2026-04-30 09:17 | -35.81746 | 147.83804 | 25765 ft | 461 kts | 81° |
| 2026-04-30 09:17 | -35.81348 | 147.87705 | 25272 ft | 457 kts | 81° |
| 2026-04-30 09:18 | -35.80951 | 147.91567 | 24764 ft | 454 kts | 81° |
| 2026-04-30 09:18 | -35.80554 | 147.95406 | 24272 ft | 450 kts | 81° |
| 2026-04-30 09:18 | -35.80156 | 147.99220 | 23715 ft | 446 kts | 81° |
| 2026-04-30 09:18 | -35.79762 | 148.02997 | 23192 ft | 443 kts | 81° |
| 2026-04-30 09:19 | -35.79369 | 148.06745 | 22674 ft | 439 kts | 81° |
| 2026-04-30 09:19 | -35.78980 | 148.10454 | 22161 ft | 436 kts | 81° |
| 2026-04-30 09:19 | -35.78592 | 148.14144 | 21644 ft | 432 kts | 80° |
| 2026-04-30 09:19 | -35.78207 | 148.17795 | 21143 ft | 428 kts | 80° |
| 2026-04-30 09:20 | -35.77825 | 148.21404 | 20769 ft | 419 kts | 80° |
| 2026-04-30 09:20 | -35.77461 | 148.24865 | 20628 ft | 395 kts | 80° |
| 2026-04-30 09:20 | -35.77116 | 148.28133 | 19953 ft | 378 kts | 80° |
| 2026-04-30 09:20 | -35.76780 | 148.31300 | 19117 ft | 368 kts | 80° |
| 2026-04-30 09:21 | -35.76458 | 148.34321 | 18788 ft | 344 kts | 80° |
| 2026-04-30 09:21 | -35.76158 | 148.37159 | 18386 ft | 327 kts | 80° |
| 2026-04-30 09:21 | -35.75865 | 148.39890 | 17983 ft | 317 kts | 79° |
| 2026-04-30 09:21 | -35.75579 | 148.42545 | 17604 ft | 312 kts | 80° |
| 2026-04-30 09:22 | -35.75294 | 148.45190 | 17228 ft | 312 kts | 80° |
| 2026-04-30 09:22 | -35.75007 | 148.47838 | 16846 ft | 312 kts | 80° |
| 2026-04-30 09:22 | -35.74720 | 148.50485 | 16468 ft | 312 kts | 80° |
| 2026-04-30 09:22 | -35.74432 | 148.53128 | 16088 ft | 311 kts | 80° |
| 2026-04-30 09:23 | -35.74145 | 148.55759 | 15712 ft | 310 kts | 80° |
| 2026-04-30 09:23 | -35.73857 | 148.58383 | 15333 ft | 309 kts | 80° |
| 2026-04-30 09:23 | -35.73384 | 148.60948 | 14974 ft | 307 kts | 69° |
| 2026-04-30 09:23 | -35.72653 | 148.63406 | 14610 ft | 305 kts | 68° |
| 2026-04-30 09:24 | -35.71924 | 148.65851 | 14235 ft | 305 kts | 68° |
| 2026-04-30 09:24 | -35.71197 | 148.68294 | 13841 ft | 303 kts | 68° |
| 2026-04-30 09:24 | -35.70476 | 148.70722 | 13482 ft | 301 kts | 69° |
| 2026-04-30 09:24 | -35.69760 | 148.73132 | 13121 ft | 299 kts | 68° |
| 2026-04-30 09:25 | -35.69056 | 148.75496 | 12768 ft | 297 kts | 69° |
| 2026-04-30 09:25 | -35.68346 | 148.77877 | 12405 ft | 296 kts | 69° |
| 2026-04-30 09:25 | -35.67639 | 148.80246 | 12045 ft | 294 kts | 69° |
| 2026-04-30 09:25 | -35.66937 | 148.82605 | 11678 ft | 293 kts | 69° |
| 2026-04-30 09:26 | -35.66241 | 148.84951 | 11329 ft | 291 kts | 69° |
| 2026-04-30 09:26 | -35.65547 | 148.87286 | 10975 ft | 290 kts | 69° |
| 2026-04-30 09:26 | -35.64850 | 148.89623 | 10438 ft | 296 kts | 69° |
| 2026-04-30 09:26 | -35.64135 | 148.92017 | 10001 ft | 296 kts | 69° |
| 2026-04-30 09:27 | -35.63433 | 148.94365 | 9563 ft | 289 kts | 69° |
| 2026-04-30 09:27 | -35.62755 | 148.96633 | 9078 ft | 275 kts | 69° |
| 2026-04-30 09:27 | -35.62116 | 148.98769 | 8745 ft | 258 kts | 69° |
| 2026-04-30 09:27 | -35.61501 | 149.00819 | 8437 ft | 257 kts | 68° |
| 2026-04-30 09:28 | -35.60880 | 149.02876 | 8120 ft | 257 kts | 68° |
| 2026-04-30 09:28 | -35.60259 | 149.04934 | 7783 ft | 256 kts | 68° |
| 2026-04-30 09:28 | -35.59638 | 149.06990 | 7470 ft | 257 kts | 68° |
| 2026-04-30 09:28 | -35.58994 | 149.09039 | 7142 ft | 257 kts | 67° |
| 2026-04-30 09:29 | -35.58351 | 149.11036 | 7071 ft | 243 kts | 66° |
| 2026-04-30 09:29 | -35.57745 | 149.12910 | 6954 ft | 229 kts | 66° |
| 2026-04-30 09:29 | -35.57175 | 149.14677 | 6844 ft | 217 kts | 67° |
| 2026-04-30 09:29 | -35.56580 | 149.16357 | 6754 ft | 213 kts | 58° |
| 2026-04-30 09:30 | -35.55655 | 149.17749 | 6657 ft | 211 kts | 40° |
| 2026-04-30 09:30 | -35.54429 | 149.18724 | 6344 ft | 210 kts | 22° |
| 2026-04-30 09:30 | -35.53064 | 149.19314 | 6052 ft | 207 kts | 9° |
| 2026-04-30 09:30 | -35.51634 | 149.19442 | 5788 ft | 205 kts | 1° |
| 2026-04-30 09:31 | -35.50211 | 149.19449 | 5525 ft | 204 kts | 0° |
| 2026-04-30 09:31 | -35.48795 | 149.19447 | 5259 ft | 202 kts | 1° |
| 2026-04-30 09:31 | -35.47418 | 149.19446 | 5011 ft | 193 kts | 1° |
| 2026-04-30 09:31 | -35.46110 | 149.19445 | 4736 ft | 183 kts | 1° |
| 2026-04-30 09:32 | -35.44865 | 149.19445 | 4495 ft | 175 kts | 1° |
| 2026-04-30 09:32 | -35.43676 | 149.19445 | 4262 ft | 167 kts | 1° |
| 2026-04-30 09:32 | -35.42535 | 149.19445 | 4054 ft | 161 kts | 1° |
| 2026-04-30 09:32 | -35.41432 | 149.19445 | 3847 ft | 156 kts | 1° |
| 2026-04-30 09:33 | -35.40358 | 149.19445 | 3638 ft | 154 kts | 1° |
| 2026-04-30 09:33 | -35.39286 | 149.19445 | 3449 ft | 154 kts | 1° |
| 2026-04-30 09:33 | -35.38228 | 149.19445 | 3241 ft | 148 kts | 0° |
| 2026-04-30 09:33 | -35.37215 | 149.19445 | 3045 ft | 143 kts | 1° |
| 2026-04-30 09:34 | -35.36230 | 149.19443 | 2843 ft | 140 kts | 0° |
| 2026-04-30 09:34 | -35.35251 | 149.19421 | 2631 ft | 141 kts | 359° |
| 2026-04-30 09:34 | -35.34602 | 149.19420 | 2506 ft | 140 kts | 0° |
| 2026-04-30 09:34 | -35.33295 | 149.19451 | 2293 ft | 141 kts | 358° |
| 2026-04-30 09:35 | -35.32647 | 149.19442 | 2154 ft | 141 kts | 0° |
| 2026-04-30 09:35 | -35.31666 | 149.19446 | 1947 ft | 141 kts | 359° |
| 2026-04-30 09:35 | -35.30533 | 149.19443 | 1880 ft | 70 kts | 0° |
| 2026-04-30 09:35 | -35.30335 | 149.19443 | 1880 ft | 26 kts | 0° |
| 2026-04-30 09:36 | -35.30192 | 149.19422 | 1880 ft | 17 kts | 315° |
| 2026-04-30 09:36 | -35.30158 | 149.19325 | 1880 ft | 0 kts | 286° |
| 2026-04-30 09:36 | -35.30157 | 149.19322 | 1880 ft | 1 kts | 285° |
| 2026-04-30 09:36 | -35.30157 | 149.19293 | 1880 ft | 6 kts | 264° |
| 2026-04-30 09:37 | -35.30212 | 149.19236 | 1880 ft | 16 kts | 193° |
| 2026-04-30 09:37 | -35.30328 | 149.19236 | 1880 ft | 18 kts | 178° |
| 2026-04-30 09:37 | -35.30458 | 149.19238 | 1880 ft | 19 kts | 180° |
| 2026-04-30 09:37 | -35.30588 | 149.19238 | 1880 ft | 15 kts | 180° |
| 2026-04-30 09:38 | -35.30658 | 149.19228 | 1880 ft | 8 kts | 217° |
| 2026-04-30 09:38 | -35.30657 | 149.19206 | 1880 ft | 4 kts | 286° |
| 2026-04-30 09:38 | -35.30642 | 149.19163 | 1880 ft | 5 kts | 274° |
| 2026-04-30 09:38 | -35.30654 | 149.19137 | 1880 ft | 1 kts | 235° |
| 2026-04-30 09:39 | -35.30665 | 149.19120 | 1877 ft | 3 kts | 232° |
| 2026-04-30 09:39 | -35.30675 | 149.19104 | 1876 ft | 2 kts | 232° |
| 2026-04-30 09:39 | -35.30680 | 149.19096 | 1880 ft | 1 kts | 232° |
| 2026-04-30 09:39 | -35.30682 | 149.19093 | 1880 ft | 0 kts | 231° |